createdAt,value
2023-05-19T00:01:17.814Z,75.19
2023-05-19T00:04:02.967Z,75.68
2023-05-19T00:06:32.775Z,75.26
2023-05-19T00:09:03.869Z,75.52
2023-05-19T00:11:31.703Z,75.62
2023-05-19T00:14:00.832Z,76.06
2023-05-19T00:16:30.068Z,76.00
2023-05-19T00:19:03.153Z,75.59
2023-05-19T00:21:32.844Z,75.36
2023-05-19T00:24:00.412Z,75.44
2023-05-19T00:26:29.232Z,75.15
2023-05-19T00:29:05.966Z,75.25
2023-05-19T00:31:34.376Z,75.17
2023-05-19T00:34:02.340Z,74.81
2023-05-19T00:36:29.979Z,74.73
2023-05-19T00:38:57.629Z,74.67
2023-05-19T00:41:25.246Z,74.29
2023-05-19T00:43:52.952Z,74.38
2023-05-19T00:46:20.660Z,74.50
2023-05-19T00:48:48.512Z,74.44
2023-05-19T00:51:17.367Z,74.44
2023-05-19T00:53:49.299Z,74.33
2023-05-19T00:56:18.593Z,74.14
2023-05-19T00:58:46.882Z,74.21
2023-05-19T01:01:17.371Z,74.62
2023-05-19T01:03:45.452Z,74.08
2023-05-19T01:06:13.215Z,74.17
2023-05-19T01:08:41.321Z,74.35
2023-05-19T01:11:08.901Z,74.12
2023-05-19T01:13:37.512Z,74.35
2023-05-19T01:16:26.876Z,74.27
2023-05-19T01:19:05.407Z,74.00
2023-05-19T01:21:44.586Z,73.41
2023-05-19T01:24:23.030Z,73.32
2023-05-19T01:27:03.404Z,73.30
2023-05-19T01:30:15.293Z,73.35
2023-05-19T01:32:45.645Z,73.18
2023-05-19T01:35:16.843Z,73.88
2023-05-19T01:37:46.857Z,73.82
2023-05-19T02:12:19.593Z,75.90
2023-05-19T03:53:14.592Z,77.15
2023-05-19T03:55:44.521Z,77.65
2023-05-19T03:58:14.686Z,77.69
2023-05-19T04:00:42.732Z,77.68
2023-05-19T04:03:10.435Z,77.23
2023-05-19T04:05:39.119Z,77.51
2023-05-19T04:08:06.701Z,77.57
2023-05-19T04:10:34.736Z,77.58
2023-05-19T04:13:02.500Z,77.51
2023-05-19T04:15:30.232Z,77.38
2023-05-19T04:17:57.879Z,77.25
2023-05-19T04:20:25.675Z,77.33
2023-05-19T04:22:53.238Z,77.08
2023-05-19T04:25:20.799Z,77.08
2023-05-19T04:27:48.959Z,77.22
2023-05-19T04:30:22.502Z,77.37
2023-05-19T04:32:51.349Z,77.06
2023-05-19T04:35:19.657Z,76.82
2023-05-19T04:37:48.610Z,77.04
2023-05-19T04:40:21.226Z,77.06
2023-05-19T04:42:49.917Z,76.85
2023-05-19T04:45:17.577Z,76.71
2023-05-19T04:47:48.363Z,76.59
2023-05-19T04:50:16.985Z,76.66
2023-05-19T04:52:48.067Z,76.35
2023-05-19T04:55:17.396Z,76.31
2023-05-19T04:57:46.051Z,76.20
2023-05-19T05:00:15.112Z,76.44
2023-05-19T05:02:54.034Z,76.44
2023-05-19T05:05:22.596Z,76.93
2023-05-19T05:07:50.804Z,76.81
2023-05-19T05:10:18.459Z,76.83
2023-05-19T05:12:47.495Z,76.04
2023-05-19T05:15:15.568Z,75.10
2023-05-19T05:17:43.863Z,74.31
2023-05-19T05:20:12.845Z,73.48
2023-05-19T05:22:41.059Z,72.73
2023-05-19T05:25:10.520Z,72.21
2023-05-19T05:27:38.606Z,71.65
2023-05-19T05:30:08.414Z,71.07
2023-05-19T05:32:37.434Z,70.49
2023-05-19T05:35:11.008Z,70.70
2023-05-19T05:37:39.550Z,70.69
2023-05-19T05:40:07.980Z,70.59
2023-05-19T05:42:36.334Z,70.79
2023-05-19T05:45:04.295Z,70.96
2023-05-19T05:47:32.849Z,70.86
2023-05-19T05:50:01.417Z,71.13
2023-05-19T05:52:31.075Z,71.52
2023-05-19T05:55:00.725Z,71.63
2023-05-19T05:57:30.876Z,71.14
2023-05-19T05:59:58.542Z,72.03
2023-05-19T06:02:27.865Z,71.51
2023-05-19T06:04:57.964Z,70.59
2023-05-19T06:07:26.323Z,68.98
2023-05-19T06:09:54.143Z,68.83
2023-05-19T06:12:23.068Z,68.07
2023-05-19T06:14:52.097Z,67.11
2023-05-19T06:17:48.603Z,66.91
2023-05-19T06:20:16.387Z,66.68
2023-05-19T06:22:44.084Z,66.82
2023-05-19T06:25:12.310Z,66.51
2023-05-19T06:27:39.942Z,66.69
2023-05-19T06:30:08.854Z,66.57
2023-05-19T06:32:44.923Z,66.39
2023-05-19T06:35:13.187Z,66.52
2023-05-19T06:37:40.882Z,66.40
2023-05-19T06:40:09.200Z,66.45
2023-05-19T06:42:38.511Z,65.85
2023-05-19T06:45:15.297Z,65.80
2023-05-19T06:47:44.546Z,64.49
2023-05-19T06:50:12.397Z,63.58
2023-05-19T06:52:42.951Z,62.30
2023-05-19T06:55:10.645Z,61.33
2023-05-19T06:57:39.483Z,61.06
2023-05-19T07:00:13.883Z,61.07
2023-05-19T07:02:44.857Z,61.13
2023-05-19T07:05:12.850Z,61.40
2023-05-19T07:07:42.010Z,61.36
2023-05-19T07:10:14.045Z,61.24
2023-05-19T07:12:42.276Z,61.63
2023-05-19T07:15:10.353Z,61.53
2023-05-19T07:17:38.801Z,61.42
2023-05-19T07:20:07.073Z,61.38
2023-05-19T07:22:38.695Z,61.25
2023-05-19T07:25:08.345Z,61.35
2023-05-19T07:27:36.782Z,61.22
2023-05-19T07:30:04.822Z,60.65
2023-05-19T07:32:32.904Z,60.37
2023-05-19T07:35:00.553Z,60.00
2023-05-19T07:37:28.233Z,59.36
2023-05-19T07:39:55.978Z,59.41
2023-05-19T07:42:24.123Z,59.58
2023-05-19T07:44:51.734Z,59.93
2023-05-19T07:47:19.365Z,60.05
2023-05-19T07:49:49.064Z,60.46
2023-05-19T07:52:19.585Z,60.45
2023-05-19T07:54:47.241Z,60.58
2023-05-19T07:57:14.940Z,60.34
2023-05-19T07:59:42.569Z,60.00
2023-05-19T08:03:13.573Z,58.63
2023-05-19T08:09:32.618Z,56.87
2023-05-19T17:52:43.342Z,43.18
2023-05-19T17:59:19.032Z,43.66
2023-05-19T18:01:46.905Z,44.32
2023-05-19T18:04:32.919Z,44.41
2023-05-19T18:07:02.619Z,44.56
2023-05-19T18:09:30.839Z,44.75
2023-05-19T18:12:02.164Z,44.95
2023-05-19T18:14:30.061Z,45.23
2023-05-19T18:16:57.773Z,44.94
2023-05-19T18:19:25.841Z,45.32
2023-05-19T18:21:53.513Z,45.66
2023-05-19T18:24:21.337Z,45.60
2023-05-19T18:26:49.012Z,45.71
2023-05-19T18:29:16.788Z,45.75
2023-05-19T18:31:44.459Z,46.11
2023-05-19T18:34:12.686Z,46.25
2023-05-19T18:36:40.299Z,46.15
2023-05-19T18:39:07.947Z,46.80
2023-05-19T18:41:37.505Z,46.64
2023-05-19T18:44:07.990Z,46.97
2023-05-19T18:46:35.841Z,46.85
2023-05-19T18:49:03.935Z,47.35
2023-05-19T18:51:33.528Z,47.43
2023-05-19T18:54:01.139Z,47.70
2023-05-19T18:56:31.747Z,47.91
2023-05-19T18:58:59.446Z,48.16
2023-05-19T19:01:27.427Z,48.25
2023-05-19T19:04:29.320Z,48.70
2023-05-19T19:10:50.465Z,49.39
2023-05-19T19:13:20.098Z,49.24
2023-05-19T19:15:52.735Z,49.60
2023-05-19T19:18:23.175Z,49.97
2023-05-19T19:20:55.112Z,50.05
2023-05-19T19:23:27.387Z,50.27
2023-05-19T19:25:58.734Z,50.21
2023-05-19T19:28:27.052Z,50.46
2023-05-19T19:30:54.895Z,50.68
2023-05-19T19:33:23.358Z,50.76
2023-05-19T19:35:51.645Z,50.96
2023-05-19T19:38:19.709Z,51.18
2023-05-19T19:40:47.368Z,51.36
2023-05-19T19:43:15.938Z,51.76
2023-05-19T19:45:44.390Z,51.75
2023-05-19T19:48:12.985Z,52.02
2023-05-19T19:50:41.388Z,51.95
2023-05-19T19:53:10.489Z,52.06
2023-05-19T19:55:39.708Z,52.47
2023-05-19T19:58:08.809Z,52.34
2023-05-19T20:00:37.172Z,52.47
2023-05-19T20:03:06.949Z,52.54
2023-05-19T20:05:39.550Z,52.90
2023-05-19T20:08:09.192Z,53.14
2023-05-19T20:10:39.406Z,53.40
2023-05-19T20:13:09.222Z,53.33
2023-05-19T20:15:39.090Z,53.97
2023-05-19T20:18:07.151Z,53.72
2023-05-19T20:20:42.452Z,53.94
2023-05-19T20:23:12.867Z,54.30
2023-05-19T20:25:51.070Z,54.37
2023-05-19T20:28:31.110Z,54.44
2023-05-19T20:30:59.779Z,54.56
2023-05-19T20:33:27.605Z,55.15
2023-05-19T20:35:55.514Z,54.87
2023-05-19T20:39:02.578Z,54.81
2023-05-19T20:41:30.198Z,55.18
2023-05-19T20:43:57.874Z,55.18
2023-05-19T20:46:34.446Z,55.66
2023-05-19T20:49:11.159Z,55.77
2023-05-19T20:51:42.054Z,55.78
2023-05-19T20:54:09.770Z,55.99
2023-05-19T20:56:37.349Z,56.07
2023-05-19T20:59:05.457Z,56.41
2023-05-19T21:01:33.187Z,56.18
2023-05-19T21:25:59.676Z,57.71
2023-05-19T21:28:30.052Z,58.38
2023-05-19T21:30:57.777Z,58.81
2023-05-19T22:09:58.243Z,60.46
2023-05-19T22:12:26.827Z,61.12
2023-05-19T22:14:54.399Z,61.23
2023-05-19T22:17:22.152Z,61.23
2023-05-19T23:31:26.582Z,63.53
2023-05-19T23:33:54.616Z,63.82
2023-05-19T23:36:23.277Z,63.76
2023-05-19T23:38:51.061Z,63.76
2023-05-19T23:41:18.594Z,63.79
2023-05-19T23:43:46.329Z,63.79
2023-05-19T23:46:13.956Z,63.49
2023-05-19T23:48:41.666Z,63.53
2023-05-19T23:51:09.244Z,63.57
2023-05-19T23:53:36.913Z,63.56
2023-05-19T23:56:04.659Z,63.90
2023-05-19T23:58:32.294Z,63.75
